sensor_id;sensor_type;location;lat;lon;timestamp;temperature;humidity
66086;DHT22;52868;49.758;9.586;2023-03-13T00:01:32;8.70;75.30
66086;DHT22;52868;49.758;9.586;2023-03-13T00:03:58;8.70;75.90
66086;DHT22;52868;49.758;9.586;2023-03-13T00:06:26;8.70;75.50
66086;DHT22;52868;49.758;9.586;2023-03-13T00:08:53;8.70;75.40
66086;DHT22;52868;49.758;9.586;2023-03-13T00:11:19;8.70;75.70
66086;DHT22;52868;49.758;9.586;2023-03-13T00:13:45;8.80;75.40
66086;DHT22;52868;49.758;9.586;2023-03-13T00:16:12;8.70;75.40
66086;DHT22;52868;49.758;9.586;2023-03-13T00:18:43;8.70;75.30
66086;DHT22;52868;49.758;9.586;2023-03-13T00:21:09;8.70;75.40
66086;DHT22;52868;49.758;9.586;2023-03-13T00:23:35;8.70;75.20
66086;DHT22;52868;49.758;9.586;2023-03-13T00:26:06;8.70;75.50
66086;DHT22;52868;49.758;9.586;2023-03-13T00:28:33;8.70;75.40
66086;DHT22;52868;49.758;9.586;2023-03-13T00:31:20;8.70;75.30
66086;DHT22;52868;49.758;9.586;2023-03-13T00:33:48;8.70;75.60
66086;DHT22;52868;49.758;9.586;2023-03-13T00:36:16;8.70;75.30
66086;DHT22;52868;49.758;9.586;2023-03-13T00:38:43;8.70;75.40
66086;DHT22;52868;49.758;9.586;2023-03-13T00:41:16;8.70;75.40
66086;DHT22;52868;49.758;9.586;2023-03-13T00:43:43;8.70;75.00
66086;DHT22;52868;49.758;9.586;2023-03-13T00:46:09;8.70;75.70
66086;DHT22;52868;49.758;9.586;2023-03-13T00:48:36;8.70;75.50
66086;DHT22;52868;49.758;9.586;2023-03-13T00:51:02;8.70;75.00
66086;DHT22;52868;49.758;9.586;2023-03-13T00:53:29;8.70;74.80
66086;DHT22;52868;49.758;9.586;2023-03-13T00:56:01;8.70;75.10
66086;DHT22;52868;49.758;9.586;2023-03-13T00:58:29;8.70;74.90
66086;DHT22;52868;49.758;9.586;2023-03-13T01:00:55;8.70;74.70
66086;DHT22;52868;49.758;9.586;2023-03-13T01:03:23;8.70;75.00
66086;DHT22;52868;49.758;9.586;2023-03-13T01:06:00;8.70;75.50
66086;DHT22;52868;49.758;9.586;2023-03-13T01:08:26;8.70;75.20
66086;DHT22;52868;49.758;9.586;2023-03-13T01:11:07;8.70;75.40
66086;DHT22;52868;49.758;9.586;2023-03-13T01:13:33;8.70;75.30
66086;DHT22;52868;49.758;9.586;2023-03-13T01:16:04;8.80;75.50
66086;DHT22;52868;49.758;9.586;2023-03-13T01:18:30;8.70;75.30
66086;DHT22;52868;49.758;9.586;2023-03-13T01:20:56;8.70;75.10
66086;DHT22;52868;49.758;9.586;2023-03-13T01:23:21;8.70;75.00
66086;DHT22;52868;49.758;9.586;2023-03-13T01:25:47;8.70;74.90
66086;DHT22;52868;49.758;9.586;2023-03-13T01:28:12;8.70;74.90
66086;DHT22;52868;49.758;9.586;2023-03-13T01:30:38;8.70;74.80
66086;DHT22;52868;49.758;9.586;2023-03-13T01:33:03;8.70;75.10
66086;DHT22;52868;49.758;9.586;2023-03-13T01:35:29;8.70;74.70
66086;DHT22;52868;49.758;9.586;2023-03-13T01:37:55;8.80;75.40
66086;DHT22;52868;49.758;9.586;2023-03-13T01:40:20;8.80;75.30
66086;DHT22;52868;49.758;9.586;2023-03-13T01:42:50;8.70;74.90
66086;DHT22;52868;49.758;9.586;2023-03-13T01:56:55;8.70;74.80
66086;DHT22;52868;49.758;9.586;2023-03-13T01:59:48;8.70;74.70
66086;DHT22;52868;49.758;9.586;2023-03-13T02:02:12;8.70;74.80
66086;DHT22;52868;49.758;9.586;2023-03-13T02:04:42;8.70;74.90
66086;DHT22;52868;49.758;9.586;2023-03-13T02:07:26;8.70;74.80
66086;DHT22;52868;49.758;9.586;2023-03-13T02:09:53;8.70;75.00
66086;DHT22;52868;49.758;9.586;2023-03-13T02:12:35;8.70;74.90
66086;DHT22;52868;49.758;9.586;2023-03-13T02:15:13;8.70;74.60
66086;DHT22;52868;49.758;9.586;2023-03-13T02:17:39;8.70;74.80
66086;DHT22;52868;49.758;9.586;2023-03-13T02:20:06;8.70;75.10
66086;DHT22;52868;49.758;9.586;2023-03-13T02:27:59;8.70;74.70
66086;DHT22;52868;49.758;9.586;2023-03-13T02:30:26;8.80;75.00
66086;DHT22;52868;49.758;9.586;2023-03-13T02:32:52;8.80;75.10
66086;DHT22;52868;49.758;9.586;2023-03-13T02:35:20;8.80;74.80
66086;DHT22;52868;49.758;9.586;2023-03-13T02:37:50;8.80;74.60
66086;DHT22;52868;49.758;9.586;2023-03-13T02:40:20;8.80;74.70
66086;DHT22;52868;49.758;9.586;2023-03-13T02:42:47;8.80;74.70
66086;DHT22;52868;49.758;9.586;2023-03-13T02:45:14;8.80;74.60
66086;DHT22;52868;49.758;9.586;2023-03-13T02:47:41;8.80;74.80
66086;DHT22;52868;49.758;9.586;2023-03-13T02:50:07;8.80;74.90
66086;DHT22;52868;49.758;9.586;2023-03-13T02:52:55;8.80;74.70
66086;DHT22;52868;49.758;9.586;2023-03-13T02:55:43;8.80;74.50
66086;DHT22;52868;49.758;9.586;2023-03-13T02:58:08;8.80;74.80
66086;DHT22;52868;49.758;9.586;2023-03-13T03:00:34;8.80;74.90
66086;DHT22;52868;49.758;9.586;2023-03-13T03:03:00;8.80;74.80
66086;DHT22;52868;49.758;9.586;2023-03-13T03:05:25;8.80;74.60
66086;DHT22;52868;49.758;9.586;2023-03-13T03:07:51;8.80;74.70
66086;DHT22;52868;49.758;9.586;2023-03-13T03:10:17;8.80;74.60
66086;DHT22;52868;49.758;9.586;2023-03-13T03:12:43;8.80;75.00
66086;DHT22;52868;49.758;9.586;2023-03-13T03:15:09;8.80;74.70
66086;DHT22;52868;49.758;9.586;2023-03-13T03:17:35;8.80;74.80
66086;DHT22;52868;49.758;9.586;2023-03-13T03:20:01;8.80;75.20
66086;DHT22;52868;49.758;9.586;2023-03-13T03:22:28;8.80;75.30
66086;DHT22;52868;49.758;9.586;2023-03-13T03:24:53;8.80;75.40
66086;DHT22;52868;49.758;9.586;2023-03-13T03:27:19;8.80;75.60
66086;DHT22;52868;49.758;9.586;2023-03-13T03:29:44;8.80;75.80
66086;DHT22;52868;49.758;9.586;2023-03-13T03:32:10;8.80;75.80
66086;DHT22;52868;49.758;9.586;2023-03-13T03:34:35;8.80;75.70
66086;DHT22;52868;49.758;9.586;2023-03-13T03:37:01;8.80;76.10
66086;DHT22;52868;49.758;9.586;2023-03-13T03:39:26;8.80;76.10
66086;DHT22;52868;49.758;9.586;2023-03-13T03:41:52;8.80;76.30
66086;DHT22;52868;49.758;9.586;2023-03-13T03:44:18;8.80;76.50
66086;DHT22;52868;49.758;9.586;2023-03-13T03:46:43;8.80;76.50
66086;DHT22;52868;49.758;9.586;2023-03-13T03:49:09;8.80;76.60
66086;DHT22;52868;49.758;9.586;2023-03-13T03:51:34;8.80;76.10
66086;DHT22;52868;49.758;9.586;2023-03-13T03:54:00;8.80;76.60
66086;DHT22;52868;49.758;9.586;2023-03-13T03:56:25;8.80;76.10
66086;DHT22;52868;49.758;9.586;2023-03-13T03:58:51;8.80;76.00
66086;DHT22;52868;49.758;9.586;2023-03-13T04:01:17;8.80;76.30
66086;DHT22;52868;49.758;9.586;2023-03-13T04:03:42;8.80;76.30
66086;DHT22;52868;49.758;9.586;2023-03-13T04:06:08;8.80;76.40
66086;DHT22;52868;49.758;9.586;2023-03-13T04:08:34;8.80;76.50
66086;DHT22;52868;49.758;9.586;2023-03-13T04:11:00;8.80;76.50
66086;DHT22;52868;49.758;9.586;2023-03-13T04:13:27;8.80;76.10
66086;DHT22;52868;49.758;9.586;2023-03-13T04:15:52;8.80;76.60
66086;DHT22;52868;49.758;9.586;2023-03-13T04:18:18;8.80;76.30
66086;DHT22;52868;49.758;9.586;2023-03-13T04:20:44;8.80;76.30
66086;DHT22;52868;49.758;9.586;2023-03-13T04:23:10;8.80;76.50
66086;DHT22;52868;49.758;9.586;2023-03-13T04:25:35;8.80;76.70
66086;DHT22;52868;49.758;9.586;2023-03-13T04:28:01;8.80;76.80
66086;DHT22;52868;49.758;9.586;2023-03-13T04:30:27;8.80;76.70
66086;DHT22;52868;49.758;9.586;2023-03-13T04:32:52;8.90;76.70
66086;DHT22;52868;49.758;9.586;2023-03-13T04:35:18;8.90;76.90
66086;DHT22;52868;49.758;9.586;2023-03-13T04:37:44;8.90;77.40
66086;DHT22;52868;49.758;9.586;2023-03-13T04:40:10;8.90;77.00
66086;DHT22;52868;49.758;9.586;2023-03-13T04:42:37;8.90;77.40
66086;DHT22;52868;49.758;9.586;2023-03-13T04:45:02;8.90;77.40
66086;DHT22;52868;49.758;9.586;2023-03-13T04:47:28;8.90;77.20
66086;DHT22;52868;49.758;9.586;2023-03-13T04:49:54;8.80;77.50
66086;DHT22;52868;49.758;9.586;2023-03-13T04:52:20;8.90;77.50
66086;DHT22;52868;49.758;9.586;2023-03-13T04:54:45;8.90;77.60
66086;DHT22;52868;49.758;9.586;2023-03-13T04:57:11;8.90;77.60
66086;DHT22;52868;49.758;9.586;2023-03-13T04:59:36;8.90;77.30
66086;DHT22;52868;49.758;9.586;2023-03-13T05:02:02;8.90;77.90
66086;DHT22;52868;49.758;9.586;2023-03-13T05:04:27;8.90;78.10
66086;DHT22;52868;49.758;9.586;2023-03-13T05:06:53;8.90;78.10
66086;DHT22;52868;49.758;9.586;2023-03-13T05:09:19;9.00;78.70
66086;DHT22;52868;49.758;9.586;2023-03-13T05:11:44;9.00;78.90
66086;DHT22;52868;49.758;9.586;2023-03-13T05:14:10;8.90;78.50
66086;DHT22;52868;49.758;9.586;2023-03-13T05:16:37;9.00;78.80
66086;DHT22;52868;49.758;9.586;2023-03-13T05:19:02;9.00;78.60
66086;DHT22;52868;49.758;9.586;2023-03-13T05:21:28;9.00;78.80
66086;DHT22;52868;49.758;9.586;2023-03-13T05:23:54;9.00;79.00
66086;DHT22;52868;49.758;9.586;2023-03-13T05:26:19;9.00;78.80
66086;DHT22;52868;49.758;9.586;2023-03-13T05:28:45;9.00;79.10
66086;DHT22;52868;49.758;9.586;2023-03-13T05:31:10;9.00;79.00
66086;DHT22;52868;49.758;9.586;2023-03-13T05:33:36;9.00;78.80
66086;DHT22;52868;49.758;9.586;2023-03-13T05:36:02;9.00;79.10
66086;DHT22;52868;49.758;9.586;2023-03-13T05:38:27;9.00;79.10
66086;DHT22;52868;49.758;9.586;2023-03-13T05:40:53;9.00;79.30
66086;DHT22;52868;49.758;9.586;2023-03-13T05:43:19;9.00;79.30
66086;DHT22;52868;49.758;9.586;2023-03-13T05:45:44;9.00;78.90
66086;DHT22;52868;49.758;9.586;2023-03-13T05:48:10;9.00;79.10
66086;DHT22;52868;49.758;9.586;2023-03-13T05:50:35;9.00;79.50
66086;DHT22;52868;49.758;9.586;2023-03-13T05:53:01;9.00;79.30
66086;DHT22;52868;49.758;9.586;2023-03-13T05:55:26;9.00;79.70
66086;DHT22;52868;49.758;9.586;2023-03-13T05:57:52;9.10;79.70
66086;DHT22;52868;49.758;9.586;2023-03-13T06:00:18;9.10;79.80
66086;DHT22;52868;49.758;9.586;2023-03-13T06:02:44;9.10;79.80
66086;DHT22;52868;49.758;9.586;2023-03-13T06:05:09;9.00;79.40
66086;DHT22;52868;49.758;9.586;2023-03-13T06:07:35;9.10;79.80
66086;DHT22;52868;49.758;9.586;2023-03-13T06:10:01;9.20;80.20
66086;DHT22;52868;49.758;9.586;2023-03-13T06:12:27;9.20;80.30
66086;DHT22;52868;49.758;9.586;2023-03-13T06:14:53;9.20;80.30
66086;DHT22;52868;49.758;9.586;2023-03-13T06:17:18;9.10;79.50
66086;DHT22;52868;49.758;9.586;2023-03-13T06:19:45;9.20;80.20
66086;DHT22;52868;49.758;9.586;2023-03-13T06:22:11;9.20;80.20
66086;DHT22;52868;49.758;9.586;2023-03-13T06:24:37;9.20;80.70
66086;DHT22;52868;49.758;9.586;2023-03-13T06:27:02;9.20;80.40
66086;DHT22;52868;49.758;9.586;2023-03-13T06:29:28;9.20;80.90
66086;DHT22;52868;49.758;9.586;2023-03-13T06:31:53;9.30;80.50
66086;DHT22;52868;49.758;9.586;2023-03-13T06:34:19;9.20;80.80
66086;DHT22;52868;49.758;9.586;2023-03-13T06:36:44;9.30;80.60
66086;DHT22;52868;49.758;9.586;2023-03-13T06:39:11;9.30;81.20
66086;DHT22;52868;49.758;9.586;2023-03-13T06:41:36;9.30;80.60
66086;DHT22;52868;49.758;9.586;2023-03-13T06:44:02;9.30;80.40
66086;DHT22;52868;49.758;9.586;2023-03-13T06:46:28;9.30;80.50
66086;DHT22;52868;49.758;9.586;2023-03-13T06:48:54;9.30;80.50
66086;DHT22;52868;49.758;9.586;2023-03-13T06:51:21;9.20;80.20
66086;DHT22;52868;49.758;9.586;2023-03-13T06:53:47;9.30;80.70
66086;DHT22;52868;49.758;9.586;2023-03-13T06:56:13;9.30;80.50
66086;DHT22;52868;49.758;9.586;2023-03-13T06:58:39;9.30;80.40
66086;DHT22;52868;49.758;9.586;2023-03-13T07:03:32;9.30;80.50
66086;DHT22;52868;49.758;9.586;2023-03-13T07:05:58;9.30;80.90
66086;DHT22;52868;49.758;9.586;2023-03-13T07:08:25;9.40;81.30
66086;DHT22;52868;49.758;9.586;2023-03-13T07:10:52;9.40;81.00
66086;DHT22;52868;49.758;9.586;2023-03-13T07:13:18;9.40;80.70
66086;DHT22;52868;49.758;9.586;2023-03-13T07:15:46;9.40;81.00
66086;DHT22;52868;49.758;9.586;2023-03-13T07:18:13;9.50;81.00
66086;DHT22;52868;49.758;9.586;2023-03-13T07:20:38;9.40;81.00
66086;DHT22;52868;49.758;9.586;2023-03-13T07:23:04;9.50;80.90
66086;DHT22;52868;49.758;9.586;2023-03-13T07:25:29;9.50;80.80
66086;DHT22;52868;49.758;9.586;2023-03-13T07:27:55;9.50;81.50
66086;DHT22;52868;49.758;9.586;2023-03-13T07:30:21;9.50;80.90
66086;DHT22;52868;49.758;9.586;2023-03-13T07:32:46;9.50;81.20
66086;DHT22;52868;49.758;9.586;2023-03-13T07:35:12;9.50;81.10
66086;DHT22;52868;49.758;9.586;2023-03-13T07:37:38;9.60;81.00
66086;DHT22;52868;49.758;9.586;2023-03-13T07:40:04;9.60;81.20
66086;DHT22;52868;49.758;9.586;2023-03-13T07:42:30;9.70;81.20
66086;DHT22;52868;49.758;9.586;2023-03-13T07:44:55;9.70;81.60
66086;DHT22;52868;49.758;9.586;2023-03-13T07:47:21;9.70;81.20
66086;DHT22;52868;49.758;9.586;2023-03-13T07:49:46;9.70;81.20
66086;DHT22;52868;49.758;9.586;2023-03-13T07:52:12;9.70;81.20
66086;DHT22;52868;49.758;9.586;2023-03-13T07:54:37;9.70;81.40
66086;DHT22;52868;49.758;9.586;2023-03-13T07:57:03;9.80;81.80
66086;DHT22;52868;49.758;9.586;2023-03-13T07:59:29;9.80;81.50
66086;DHT22;52868;49.758;9.586;2023-03-13T08:01:55;9.80;81.20
66086;DHT22;52868;49.758;9.586;2023-03-13T08:04:20;9.80;81.10
66086;DHT22;52868;49.758;9.586;2023-03-13T08:06:46;9.80;81.30
66086;DHT22;52868;49.758;9.586;2023-03-13T08:09:12;9.70;80.80
66086;DHT22;52868;49.758;9.586;2023-03-13T08:11:38;9.80;81.30
66086;DHT22;52868;49.758;9.586;2023-03-13T08:14:09;9.90;81.60
66086;DHT22;52868;49.758;9.586;2023-03-13T08:16:35;9.90;81.60
66086;DHT22;52868;49.758;9.586;2023-03-13T08:19:02;9.90;81.70
66086;DHT22;52868;49.758;9.586;2023-03-13T08:21:36;10.00;81.60
66086;DHT22;52868;49.758;9.586;2023-03-13T08:24:04;9.90;81.60
66086;DHT22;52868;49.758;9.586;2023-03-13T08:26:31;9.90;81.30
66086;DHT22;52868;49.758;9.586;2023-03-13T08:29:00;10.00;81.70
66086;DHT22;52868;49.758;9.586;2023-03-13T08:31:28;10.10;81.90
66086;DHT22;52868;49.758;9.586;2023-03-13T08:33:54;10.00;81.40
66086;DHT22;52868;49.758;9.586;2023-03-13T08:36:25;10.10;81.20
66086;DHT22;52868;49.758;9.586;2023-03-13T08:38:52;10.10;81.30
66086;DHT22;52868;49.758;9.586;2023-03-13T08:41:21;10.00;81.00
66086;DHT22;52868;49.758;9.586;2023-03-13T08:43:47;10.10;81.90
66086;DHT22;52868;49.758;9.586;2023-03-13T08:46:14;10.20;81.40
66086;DHT22;52868;49.758;9.586;2023-03-13T08:48:40;10.20;81.40
66086;DHT22;52868;49.758;9.586;2023-03-13T08:51:13;10.10;81.00
66086;DHT22;52868;49.758;9.586;2023-03-13T08:53:41;10.20;81.30
66086;DHT22;52868;49.758;9.586;2023-03-13T08:56:09;10.20;81.00
66086;DHT22;52868;49.758;9.586;2023-03-13T08:58:35;10.20;80.70
66086;DHT22;52868;49.758;9.586;2023-03-13T09:01:03;10.20;80.70
66086;DHT22;52868;49.758;9.586;2023-03-13T09:03:29;10.20;80.80
66086;DHT22;52868;49.758;9.586;2023-03-13T09:05:59;10.30;81.90
66086;DHT22;52868;49.758;9.586;2023-03-13T09:08:25;10.40;81.50
66086;DHT22;52868;49.758;9.586;2023-03-13T09:11:00;10.40;81.80
66086;DHT22;52868;49.758;9.586;2023-03-13T09:13:27;10.40;81.00
66086;DHT22;52868;49.758;9.586;2023-03-13T09:15:58;10.30;80.70
66086;DHT22;52868;49.758;9.586;2023-03-13T09:18:25;10.30;80.80
66086;DHT22;52868;49.758;9.586;2023-03-13T09:20:51;10.40;81.20
66086;DHT22;52868;49.758;9.586;2023-03-13T09:23:18;10.30;81.10
66086;DHT22;52868;49.758;9.586;2023-03-13T09:25:43;10.50;81.30
66086;DHT22;52868;49.758;9.586;2023-03-13T09:28:09;10.50;81.10
66086;DHT22;52868;49.758;9.586;2023-03-13T09:30:35;10.40;81.20
66086;DHT22;52868;49.758;9.586;2023-03-13T09:33:00;10.40;81.00
66086;DHT22;52868;49.758;9.586;2023-03-13T09:35:26;10.50;81.40
66086;DHT22;52868;49.758;9.586;2023-03-13T09:37:52;10.50;81.10
66086;DHT22;52868;49.758;9.586;2023-03-13T09:40:20;10.50;81.40
66086;DHT22;52868;49.758;9.586;2023-03-13T09:42:56;10.60;81.50
66086;DHT22;52868;49.758;9.586;2023-03-13T09:45:37;10.50;80.70
66086;DHT22;52868;49.758;9.586;2023-03-13T09:51:12;10.60;80.80
66086;DHT22;52868;49.758;9.586;2023-03-13T09:53:46;10.60;81.00
66086;DHT22;52868;49.758;9.586;2023-03-13T09:56:19;10.50;81.00
66086;DHT22;52868;49.758;9.586;2023-03-13T09:58:54;10.50;80.60
66086;DHT22;52868;49.758;9.586;2023-03-13T10:01:27;10.60;81.20
66086;DHT22;52868;49.758;9.586;2023-03-13T10:06:23;10.70;81.00
66086;DHT22;52868;49.758;9.586;2023-03-13T10:08:50;10.70;80.90
66086;DHT22;52868;49.758;9.586;2023-03-13T10:11:27;10.70;80.70
66086;DHT22;52868;49.758;9.586;2023-03-13T10:14:15;10.70;81.00
66086;DHT22;52868;49.758;9.586;2023-03-13T10:16:53;10.70;81.10
66086;DHT22;52868;49.758;9.586;2023-03-13T10:19:31;10.70;81.30
66086;DHT22;52868;49.758;9.586;2023-03-13T10:22:01;10.80;81.30
66086;DHT22;52868;49.758;9.586;2023-03-13T10:24:33;10.80;81.20
66086;DHT22;52868;49.758;9.586;2023-03-13T10:26:59;10.80;80.50
66086;DHT22;52868;49.758;9.586;2023-03-13T10:29:27;10.80;81.00
66086;DHT22;52868;49.758;9.586;2023-03-13T10:32:04;10.80;81.10
66086;DHT22;52868;49.758;9.586;2023-03-13T10:34:59;10.80;81.10
66086;DHT22;52868;49.758;9.586;2023-03-13T10:37:39;10.90;81.30
66086;DHT22;52868;49.758;9.586;2023-03-13T10:40:20;10.90;81.10
66086;DHT22;52868;49.758;9.586;2023-03-13T10:42:52;11.00;81.40
66086;DHT22;52868;49.758;9.586;2023-03-13T10:45:21;11.10;81.10
66086;DHT22;52868;49.758;9.586;2023-03-13T10:47:55;11.10;80.90
66086;DHT22;52868;49.758;9.586;2023-03-13T10:50:23;11.20;81.50
66086;DHT22;52868;49.758;9.586;2023-03-13T10:52:50;11.20;81.00
66086;DHT22;52868;49.758;9.586;2023-03-13T10:55:21;11.20;80.70
66086;DHT22;52868;49.758;9.586;2023-03-13T10:57:57;11.20;80.50
66086;DHT22;52868;49.758;9.586;2023-03-13T11:00:39;11.20;80.50
66086;DHT22;52868;49.758;9.586;2023-03-13T11:03:17;11.30;80.70
66086;DHT22;52868;49.758;9.586;2023-03-13T11:05:52;11.30;80.60
66086;DHT22;52868;49.758;9.586;2023-03-13T11:08:22;11.40;80.80
66086;DHT22;52868;49.758;9.586;2023-03-13T11:10:54;11.50;80.60
66086;DHT22;52868;49.758;9.586;2023-03-13T11:16:05;11.50;81.10
66086;DHT22;52868;49.758;9.586;2023-03-13T11:18:44;11.50;80.30
66086;DHT22;52868;49.758;9.586;2023-03-13T11:21:22;11.60;80.50
66086;DHT22;52868;49.758;9.586;2023-03-13T11:24:00;11.50;79.90
66086;DHT22;52868;49.758;9.586;2023-03-13T11:26:48;11.70;80.40
66086;DHT22;52868;49.758;9.586;2023-03-13T11:31:53;11.80;80.60
66086;DHT22;52868;49.758;9.586;2023-03-13T11:34:42;11.80;80.10
66086;DHT22;52868;49.758;9.586;2023-03-13T11:37:15;11.90;80.50
66086;DHT22;52868;49.758;9.586;2023-03-13T11:39:49;11.90;80.00
66086;DHT22;52868;49.758;9.586;2023-03-13T11:54:22;12.20;80.10
66086;DHT22;52868;49.758;9.586;2023-03-13T11:56:55;12.30;79.70
66086;DHT22;52868;49.758;9.586;2023-03-13T12:00:18;12.30;80.20
66086;DHT22;52868;49.758;9.586;2023-03-13T12:02:22;12.40;79.40
66086;DHT22;52868;49.758;9.586;2023-03-13T12:04:55;12.40;79.50
66086;DHT22;52868;49.758;9.586;2023-03-13T12:07:26;12.40;79.30
66086;DHT22;52868;49.758;9.586;2023-03-13T12:10:04;12.40;79.40
66086;DHT22;52868;49.758;9.586;2023-03-13T12:12:37;12.50;78.70
66086;DHT22;52868;49.758;9.586;2023-03-13T12:15:57;12.50;78.90
66086;DHT22;52868;49.758;9.586;2023-03-13T12:21:06;12.50;79.00
66086;DHT22;52868;49.758;9.586;2023-03-13T12:23:48;12.60;79.20
66086;DHT22;52868;49.758;9.586;2023-03-13T12:26:15;12.60;78.90
66086;DHT22;52868;49.758;9.586;2023-03-13T12:31:31;12.80;79.10
66086;DHT22;52868;49.758;9.586;2023-03-13T12:34:26;12.80;78.40
66086;DHT22;52868;49.758;9.586;2023-03-13T12:39:50;12.80;78.30
66086;DHT22;52868;49.758;9.586;2023-03-13T12:42:54;12.80;77.70
66086;DHT22;52868;49.758;9.586;2023-03-13T12:45:22;12.80;78.10
66086;DHT22;52868;49.758;9.586;2023-03-13T12:56:52;12.90;78.40
66086;DHT22;52868;49.758;9.586;2023-03-13T12:59:25;12.90;77.10
66086;DHT22;52868;49.758;9.586;2023-03-13T13:01:53;12.80;77.70
66086;DHT22;52868;49.758;9.586;2023-03-13T13:04:31;12.90;77.70
66086;DHT22;52868;49.758;9.586;2023-03-13T13:07:04;13.00;77.40
66086;DHT22;52868;49.758;9.586;2023-03-13T13:09:38;13.00;77.80
66086;DHT22;52868;49.758;9.586;2023-03-13T13:12:25;13.00;77.70
66086;DHT22;52868;49.758;9.586;2023-03-13T13:17:47;13.10;77.50
66086;DHT22;52868;49.758;9.586;2023-03-13T13:20:44;13.10;77.50
66086;DHT22;52868;49.758;9.586;2023-03-13T13:23:26;13.00;77.40
66086;DHT22;52868;49.758;9.586;2023-03-13T13:25:54;13.10;77.60
66086;DHT22;52868;49.758;9.586;2023-03-13T13:28:33;13.20;77.60
66086;DHT22;52868;49.758;9.586;2023-03-13T13:30:59;13.20;77.60
66086;DHT22;52868;49.758;9.586;2023-03-13T13:38:46;13.20;77.30
66086;DHT22;52868;49.758;9.586;2023-03-13T13:43:39;13.20;77.00
66086;DHT22;52868;49.758;9.586;2023-03-13T13:48:43;13.20;77.00
66086;DHT22;52868;49.758;9.586;2023-03-13T13:53:46;13.20;76.20
66086;DHT22;52868;49.758;9.586;2023-03-13T14:01:45;13.20;77.00
66086;DHT22;52868;49.758;9.586;2023-03-13T14:08:03;13.30;77.50
66086;DHT22;52868;49.758;9.586;2023-03-13T14:12:36;13.30;77.10
66086;DHT22;52868;49.758;9.586;2023-03-13T14:15:20;13.30;77.10
66086;DHT22;52868;49.758;9.586;2023-03-13T14:17:50;13.30;77.10
66086;DHT22;52868;49.758;9.586;2023-03-13T14:20:26;13.30;77.70
66086;DHT22;52868;49.758;9.586;2023-03-13T14:22:54;13.30;76.60
66086;DHT22;52868;49.758;9.586;2023-03-13T14:25:22;13.40;77.00
66086;DHT22;52868;49.758;9.586;2023-03-13T14:27:49;13.50;76.90
66086;DHT22;52868;49.758;9.586;2023-03-13T14:30:17;13.50;76.50
66086;DHT22;52868;49.758;9.586;2023-03-13T14:32:43;13.40;76.10
66086;DHT22;52868;49.758;9.586;2023-03-13T14:35:12;13.40;76.70
66086;DHT22;52868;49.758;9.586;2023-03-13T14:37:47;13.50;77.00
66086;DHT22;52868;49.758;9.586;2023-03-13T14:40:20;13.50;76.90
66086;DHT22;52868;49.758;9.586;2023-03-13T14:42:50;13.60;76.80
66086;DHT22;52868;49.758;9.586;2023-03-13T14:45:30;13.50;76.30
66086;DHT22;52868;49.758;9.586;2023-03-13T14:48:13;13.50;76.60
66086;DHT22;52868;49.758;9.586;2023-03-13T14:50:41;13.50;76.80
66086;DHT22;52868;49.758;9.586;2023-03-13T14:53:25;13.50;76.40
66086;DHT22;52868;49.758;9.586;2023-03-13T14:56:13;13.50;76.50
66086;DHT22;52868;49.758;9.586;2023-03-13T14:58:40;13.50;76.70
66086;DHT22;52868;49.758;9.586;2023-03-13T15:01:20;13.50;76.10
66086;DHT22;52868;49.758;9.586;2023-03-13T15:03:47;13.50;76.60
66086;DHT22;52868;49.758;9.586;2023-03-13T15:06:18;13.60;76.70
66086;DHT22;52868;49.758;9.586;2023-03-13T15:08:46;13.60;76.10
66086;DHT22;52868;49.758;9.586;2023-03-13T15:11:23;13.60;75.70
66086;DHT22;52868;49.758;9.586;2023-03-13T15:13:49;13.60;76.40
66086;DHT22;52868;49.758;9.586;2023-03-13T15:16:17;13.70;76.80
66086;DHT22;52868;49.758;9.586;2023-03-13T15:18:48;13.70;75.80
66086;DHT22;52868;49.758;9.586;2023-03-13T15:24:01;13.70;76.10
66086;DHT22;52868;49.758;9.586;2023-03-13T15:26:35;13.80;76.40
66086;DHT22;52868;49.758;9.586;2023-03-13T15:29:00;13.80;75.70
66086;DHT22;52868;49.758;9.586;2023-03-13T15:31:27;13.70;75.90
66086;DHT22;52868;49.758;9.586;2023-03-13T15:33:56;13.70;76.00
66086;DHT22;52868;49.758;9.586;2023-03-13T15:36:23;13.80;75.70
66086;DHT22;52868;49.758;9.586;2023-03-13T15:38:49;13.80;75.80
66086;DHT22;52868;49.758;9.586;2023-03-13T15:41:16;13.80;75.80
66086;DHT22;52868;49.758;9.586;2023-03-13T15:43:42;13.80;75.40
66086;DHT22;52868;49.758;9.586;2023-03-13T15:46:13;13.80;76.00
66086;DHT22;52868;49.758;9.586;2023-03-13T15:48:40;13.80;75.80
66086;DHT22;52868;49.758;9.586;2023-03-13T15:51:14;13.80;75.80
66086;DHT22;52868;49.758;9.586;2023-03-13T15:53:40;13.90;76.00
66086;DHT22;52868;49.758;9.586;2023-03-13T15:56:28;13.80;75.40
66086;DHT22;52868;49.758;9.586;2023-03-13T15:58:55;13.80;75.40
66086;DHT22;52868;49.758;9.586;2023-03-13T16:01:21;13.80;75.00
66086;DHT22;52868;49.758;9.586;2023-03-13T16:03:47;13.80;75.40
66086;DHT22;52868;49.758;9.586;2023-03-13T16:06:18;13.80;75.70
66086;DHT22;52868;49.758;9.586;2023-03-13T16:08:46;13.80;75.30
66086;DHT22;52868;49.758;9.586;2023-03-13T16:11:14;13.80;75.90
66086;DHT22;52868;49.758;9.586;2023-03-13T16:13:40;13.90;75.50
66086;DHT22;52868;49.758;9.586;2023-03-13T16:16:17;13.90;75.30
66086;DHT22;52868;49.758;9.586;2023-03-13T16:18:44;14.00;75.10
66086;DHT22;52868;49.758;9.586;2023-03-13T16:21:17;13.90;75.00
66086;DHT22;52868;49.758;9.586;2023-03-13T16:23:43;13.90;75.20
66086;DHT22;52868;49.758;9.586;2023-03-13T16:26:29;13.80;74.70
66086;DHT22;52868;49.758;9.586;2023-03-13T16:28:55;13.80;75.00
66086;DHT22;52868;49.758;9.586;2023-03-13T16:31:23;13.80;74.70
66086;DHT22;52868;49.758;9.586;2023-03-13T16:33:50;13.70;74.40
66086;DHT22;52868;49.758;9.586;2023-03-13T16:36:19;13.70;74.90
66086;DHT22;52868;49.758;9.586;2023-03-13T16:38:46;13.70;74.80
66086;DHT22;52868;49.758;9.586;2023-03-13T16:41:16;13.90;75.10
66086;DHT22;52868;49.758;9.586;2023-03-13T16:43:43;14.00;72.80
66086;DHT22;52868;49.758;9.586;2023-03-13T16:46:12;13.80;72.20
66086;DHT22;52868;49.758;9.586;2023-03-13T16:48:38;13.80;73.10
66086;DHT22;52868;49.758;9.586;2023-03-13T16:51:04;13.70;73.90
66086;DHT22;52868;49.758;9.586;2023-03-13T16:53:29;13.70;74.10
66086;DHT22;52868;49.758;9.586;2023-03-13T16:55:55;13.50;74.60
66086;DHT22;52868;49.758;9.586;2023-03-13T16:58:21;13.50;74.80
66086;DHT22;52868;49.758;9.586;2023-03-13T17:00:46;13.40;75.60
66086;DHT22;52868;49.758;9.586;2023-03-13T17:03:12;13.30;75.80
66086;DHT22;52868;49.758;9.586;2023-03-13T17:05:37;13.30;76.00
66086;DHT22;52868;49.758;9.586;2023-03-13T17:08:03;13.20;76.40
66086;DHT22;52868;49.758;9.586;2023-03-13T17:10:31;13.20;76.60
66086;DHT22;52868;49.758;9.586;2023-03-13T17:12:57;13.20;77.00
66086;DHT22;52868;49.758;9.586;2023-03-13T17:15:24;13.10;77.00
66086;DHT22;52868;49.758;9.586;2023-03-13T17:17:50;13.10;76.70
66086;DHT22;52868;49.758;9.586;2023-03-13T17:20:27;13.10;77.40